IBZ weather

Ibiza Airport
Ibiza, Baleares, Spain

Public forecast

Using degrees Celsius for public forecast. Weather courtesy of forecast.io.

METAR (pilot weather report)

Retrieved 2019/05/25 07:30 UTC (0 seconds ago):

LEIB 250730Z 02005KT 350V060 9999 -DZ FEW012 BKN039 16/14 Q1015 REDZ TEMPO 4000 SHRA FEW030TCU

TAF (pilot weather forecast)

Retrieved 2019/05/25 03:31 UTC (4 hours ago):

TAF LEIB 250200Z 2503/2603 02005KT 9999 FEW020 TX21/2512Z TN12/2506Z TEMPO 2503/2515 4000 SHRA FEW030TCU TEMPO 2503/2507 35010KT BECMG 2507/2509 02012KT TEMPO 2509/2518 01020KT